Time;durP1;ratioP1;P1;durP2;ratioP2;P2;SDS_P1;SDS_P2;PMS_P1;PMS_P2;Temp;Humidity;BMP_temperature;BMP_pressure;BME280_temperature;BME280_humidity;BME280_pressure;Samples;Min_cycle;Max_cycle;Signal;HPM_P1;HPM_P2
2021/10/07 00:00:09;;;;;;;5.07;3.22;;;;;;;7.26;100.00;102199.56;5013301;28;20025;-80
2021/10/07 00:02:40;;;;;;;8.93;3.17;;;;;;;7.17;100.00;102203.56;5028475;28;20082;-78
2021/10/07 00:05:08;;;;;;;6.10;2.88;;;;;;;7.11;100.00;102206.53;5012066;28;20037;-77
2021/10/07 00:07:34;;;;;;;7.13;3.20;;;;;;;7.07;100.00;102200.63;5027947;28;20517;-79
2021/10/07 00:10:00;;;;;;;5.30;2.97;;;;;;;7.06;100.00;102204.16;5027710;28;20107;-79
2021/10/07 00:12:26;;;;;;;8.88;2.83;;;;;;;7.05;100.00;102201.66;4989289;28;20032;-81
2021/10/07 00:14:51;;;;;;;5.50;2.95;;;;;;;7.03;100.00;102204.34;5000835;28;20545;-79
2021/10/07 00:17:17;;;;;;;7.75;2.97;;;;;;;7.04;100.00;102205.19;5027821;28;20168;-78
2021/10/07 00:19:43;;;;;;;5.63;3.10;;;;;;;7.00;100.00;102212.34;5011063;28;20512;-82
2021/10/07 00:22:08;;;;;;;6.60;2.88;;;;;;;6.99;100.00;102214.13;5024871;28;20052;-80
2021/10/07 00:24:34;;;;;;;5.03;3.50;;;;;;;7.02;100.00;102223.53;5015303;28;20059;-79
2021/10/07 00:26:59;;;;;;;9.50;3.97;;;;;;;6.96;100.00;102229.09;5012122;28;20456;-78
2021/10/07 00:29:38;;;;;;;6.45;4.07;;;;;;;6.91;100.00;102229.38;4995169;28;20055;-78
2021/10/07 00:32:11;;;;;;;5.32;3.65;;;;;;;6.89;100.00;102225.16;4991363;28;20041;-78
2021/10/07 00:34:50;;;;;;;8.93;3.40;;;;;;;6.81;100.00;102234.25;5001388;28;20543;-80
2021/10/07 00:40:13;;;;;;;9.38;3.72;;;;;;;6.73;100.00;102227.78;4976124;28;20044;-79
2021/10/07 00:42:38;;;;;;;5.75;3.20;;;;;;;6.77;100.00;102237.94;5011749;28;20030;-78
2021/10/07 00:45:05;;;;;;;4.97;3.70;;;;;;;6.74;100.00;102239.88;5004112;28;20410;-79
2021/10/07 00:47:31;;;;;;;3.67;3.33;;;;;;;6.73;100.00;102241.66;5010284;28;20489;-78
2021/10/07 00:49:56;;;;;;;4.78;3.20;;;;;;;6.73;100.00;102244.25;5010328;28;20101;-79
2021/10/07 00:52:22;;;;;;;6.32;3.40;;;;;;;6.75;100.00;102242.41;5008644;28;20442;-79
2021/10/07 00:54:49;;;;;;;4.82;3.10;;;;;;;6.69;100.00;102245.38;5015197;28;20483;-77
2021/10/07 00:57:19;;;;;;;6.55;3.63;;;;;;;6.68;100.00;102250.66;5028332;28;20041;-81
2021/10/07 00:59:49;;;;;;;3.58;3.22;;;;;;;6.70;100.00;102261.84;5013329;28;20036;-80
2021/10/07 01:02:15;;;;;;;3.55;3.10;;;;;;;6.57;100.00;102243.41;5026914;28;20039;-78
2021/10/07 01:04:41;;;;;;;3.28;2.97;;;;;;;6.58;100.00;102258.97;5031515;28;20052;-81
2021/10/07 01:07:08;;;;;;;8.30;3.58;;;;;;;6.59;100.00;102257.22;5031772;28;20309;-79
2021/10/07 01:09:34;;;;;;;6.97;4.43;;;;;;;6.56;100.00;102252.19;5017216;28;20033;-78
2021/10/07 01:12:01;;;;;;;8.50;4.20;;;;;;;6.56;100.00;102260.00;4997651;28;20044;-80
2021/10/07 01:14:54;;;;;;;6.18;3.85;;;;;;;6.58;100.00;102248.56;5022954;28;20487;-80
2021/10/07 01:17:30;;;;;;;6.75;3.60;;;;;;;6.59;100.00;102259.81;5029885;28;20312;-80
2021/10/07 01:19:58;;;;;;;5.97;4.20;;;;;;;6.52;100.00;102250.66;5002781;28;20036;-77
2021/10/07 01:22:26;;;;;;;7.13;4.05;;;;;;;6.50;100.00;102262.91;5014508;28;20036;-78
2021/10/07 01:24:52;;;;;;;9.43;4.30;;;;;;;6.39;100.00;102253.91;5011198;28;20047;-78
2021/10/07 01:27:21;;;;;;;6.75;3.63;;;;;;;6.38;100.00;102256.59;5030474;28;20044;-78
2021/10/07 01:29:52;;;;;;;4.05;3.15;;;;;;;6.43;100.00;102258.03;5010210;28;20025;-78
2021/10/07 01:32:18;;;;;;;6.47;3.58;;;;;;;6.37;100.00;102255.78;5018824;28;20037;-80
2021/10/07 01:34:43;;;;;;;7.22;3.33;;;;;;;6.37;100.00;102265.38;5013916;28;20037;-78
2021/10/07 01:37:09;;;;;;;6.45;3.70;;;;;;;6.36;100.00;102253.25;5015852;28;20503;-78
2021/10/07 01:39:34;;;;;;;6.13;3.35;;;;;;;6.37;100.00;102255.78;5040419;28;20033;-76
2021/10/07 01:41:59;;;;;;;5.10;4.15;;;;;;;6.37;100.00;102250.56;5014145;28;20043;-76
2021/10/07 01:44:26;;;;;;;5.38;3.35;;;;;;;6.39;100.00;102258.31;5014249;28;20034;-78
2021/10/07 01:46:52;;;;;;;5.55;4.05;;;;;;;6.35;100.00;102268.03;4995533;28;20037;-78
2021/10/07 01:49:17;;;;;;;8.98;3.65;;;;;;;6.30;100.00;102262.22;5011610;28;20553;-79
2021/10/07 01:51:43;;;;;;;7.43;3.67;;;;;;;6.28;100.00;102265.84;5017443;28;20029;-78
2021/10/07 01:54:09;;;;;;;6.82;3.95;;;;;;;6.28;100.00;102266.69;5013749;28;20670;-79
2021/10/07 01:56:35;;;;;;;6.72;3.97;;;;;;;6.24;100.00;102266.00;5011829;28;20029;-78
2021/10/07 01:59:00;;;;;;;9.38;4.40;;;;;;;6.22;100.00;102257.44;5039615;28;20039;-78
2021/10/07 02:01:26;;;;;;;6.30;4.10;;;;;;;6.23;100.00;102264.34;5009328;28;20029;-78
2021/10/07 02:03:52;;;;;;;5.35;4.35;;;;;;;6.24;100.00;102278.19;5016657;28;20115;-78
2021/10/07 02:06:18;;;;;;;6.28;4.13;;;;;;;6.20;100.00;102276.69;5026087;28;20040;-77
2021/10/07 02:08:43;;;;;;;6.55;4.20;;;;;;;6.19;100.00;102277.59;5030618;28;20021;-78
2021/10/07 02:11:09;;;;;;;6.78;3.75;;;;;;;6.19;100.00;102281.03;5028819;28;20029;-79
2021/10/07 02:13:35;;;;;;;6.97;3.63;;;;;;;6.21;100.00;102279.19;5015875;28;20083;-78
2021/10/07 02:16:01;;;;;;;6.53;3.60;;;;;;;6.23;100.00;102286.91;4997334;28;20076;-76
2021/10/07 02:18:27;;;;;;;6.50;3.60;;;;;;;6.28;100.00;102286.69;5008718;28;20037;-78
2021/10/07 02:20:53;;;;;;;5.40;3.70;;;;;;;6.22;100.00;102280.03;5003058;28;20036;-78
2021/10/07 02:23:19;;;;;;;7.10;3.70;;;;;;;6.19;100.00;102288.84;5010855;28;20095;-78
2021/10/07 02:25:44;;;;;;;5.32;3.30;;;;;;;6.16;100.00;102280.34;5009531;28;20044;-79
2021/10/07 02:28:10;;;;;;;7.70;3.25;;;;;;;6.18;100.00;102281.97;5013039;28;20044;-78
2021/10/07 02:30:35;;;;;;;5.95;3.58;;;;;;;6.15;100.00;102286.50;5013430;28;20087;-79
2021/10/07 02:33:01;;;;;;;5.15;3.28;;;;;;;6.16;100.00;102295.97;5030623;28;20041;-79
2021/10/07 02:35:27;;;;;;;7.00;3.70;;;;;;;6.11;100.00;102291.00;5015134;28;20049;-80
2021/10/07 02:37:52;;;;;;;7.90;4.90;;;;;;;6.08;100.00;102295.53;4999742;28;20029;-80
2021/10/07 02:40:18;;;;;;;7.15;3.90;;;;;;;6.01;100.00;102301.06;5032664;28;20033;-78
2021/10/07 02:42:44;;;;;;;8.60;4.10;;;;;;;5.98;100.00;102313.41;5007622;28;20039;-78
2021/10/07 02:45:12;;;;;;;6.88;4.22;;;;;;;5.97;100.00;102309.97;4999981;28;20065;-79
2021/10/07 02:47:38;;;;;;;13.50;4.20;;;;;;;5.95;100.00;102311.81;5010940;28;20048;-79
2021/10/07 02:50:05;;;;;;;4.88;3.97;;;;;;;5.91;100.00;102325.84;4986012;28;20487;-79
2021/10/07 02:52:31;;;;;;;9.60;4.78;;;;;;;5.88;100.00;102325.16;4998275;28;20569;-79
2021/10/07 02:54:56;;;;;;;5.30;3.60;;;;;;;5.88;100.00;102332.97;4998749;28;20123;-77
2021/10/07 02:57:22;;;;;;;4.38;3.85;;;;;;;5.88;100.00;102332.97;5028574;28;20044;-78
2021/10/07 02:59:49;;;;;;;10.75;3.70;;;;;;;5.91;100.00;102335.44;5008178;28;20404;-79
2021/10/07 03:02:15;;;;;;;6.85;4.15;;;;;;;5.84;100.00;102334.91;5014873;28;20035;-79
2021/10/07 03:04:42;;;;;;;8.48;3.88;;;;;;;5.78;100.00;102337.81;5015869;28;20025;-80
2021/10/07 03:07:10;;;;;;;4.97;4.10;;;;;;;5.77;100.00;102341.34;4997920;28;20561;-78
2021/10/07 03:09:36;;;;;;;4.22;3.65;;;;;;;5.80;100.00;102344.66;4992453;28;20030;-79
2021/10/07 03:12:03;;;;;;;7.40;3.83;;;;;;;5.79;100.00;102345.53;5014465;28;20043;-82
2021/10/07 03:14:29;;;;;;;6.82;4.20;;;;;;;5.71;100.00;102339.88;5002552;28;20028;-79
2021/10/07 03:16:55;;;;;;;6.47;4.03;;;;;;;5.75;100.00;102353.59;5027533;28;20399;-77
2021/10/07 03:19:20;;;;;;;11.02;4.32;;;;;;;5.73;100.00;102355.44;5013491;28;20823;-79
2021/10/07 03:21:45;;;;;;;9.20;3.88;;;;;;;5.72;100.00;102356.34;5013731;28;20032;-80
2021/10/07 03:24:11;;;;;;;5.82;3.70;;;;;;;5.65;100.00;102361.84;5003164;28;20037;-81
2021/10/07 03:26:36;;;;;;;8.10;3.85;;;;;;;5.65;100.00;102368.81;5010677;28;20445;-79
2021/10/07 03:29:02;;;;;;;5.40;3.65;;;;;;;5.64;100.00;102377.56;4997469;28;20034;-79
2021/10/07 03:31:28;;;;;;;7.68;3.55;;;;;;;5.63;100.00;102374.09;5014408;28;20423;-78
2021/10/07 03:33:53;;;;;;;3.72;3.15;;;;;;;5.63;100.00;102379.31;5010358;28;20045;-80
2021/10/07 03:36:18;;;;;;;4.65;3.33;;;;;;;5.58;100.00;102383.91;5012716;28;20118;-79
2021/10/07 03:38:44;;;;;;;7.80;3.60;;;;;;;5.51;100.00;102385.09;4994914;28;20095;-79
2021/10/07 03:41:09;;;;;;;4.38;3.08;;;;;;;5.51;100.00;102385.09;4999469;28;20044;-77
2021/10/07 03:43:35;;;;;;;5.45;3.47;;;;;;;5.51;100.00;102382.50;5015530;28;21020;-79
2021/10/07 03:46:01;;;;;;;6.28;3.20;;;;;;;5.48;100.00;102385.22;5032338;28;20039;-79
2021/10/07 03:48:27;;;;;;;6.45;3.80;;;;;;;5.44;100.00;102388.91;5028499;28;20041;-77
2021/10/07 03:50:53;;;;;;;3.95;3.40;;;;;;;5.43;100.00;102388.06;5013386;28;20068;-81
2021/10/07 03:53:18;;;;;;;4.45;3.60;;;;;;;5.39;100.00;102399.53;4995437;28;20057;-79
2021/10/07 03:55:43;;;;;;;4.82;3.60;;;;;;;5.41;100.00;102392.50;5001938;28;20074;-80
2021/10/07 03:58:09;;;;;;;11.20;3.90;;;;;;;5.43;100.00;102400.25;5031903;28;20475;-80
2021/10/07 04:00:34;;;;;;;9.52;4.45;;;;;;;5.43;100.00;102397.63;4996745;28;20037;-80
2021/10/07 04:03:03;;;;;;;7.20;4.90;;;;;;;5.41;100.00;102404.69;5010641;28;20037;-80
2021/10/07 04:05:29;;;;;;;9.43;5.28;;;;;;;5.47;100.00;102409.59;5009039;28;20137;-79
2021/10/07 04:07:54;;;;;;;10.70;6.00;;;;;;;5.54;100.00;102421.41;5029752;28;20483;-79
2021/10/07 04:10:20;;;;;;;10.02;6.97;;;;;;;5.61;100.00;102419.34;4996440;28;20032;-78
2021/10/07 04:12:45;;;;;;;8.95;6.70;;;;;;;5.63;100.00;102426.19;5014491;28;20053;-80
2021/10/07 04:15:11;;;;;;;7.82;6.63;;;;;;;5.65;100.00;102424.34;5009429;28;20037;-80
2021/10/07 04:17:37;;;;;;;9.00;5.95;;;;;;;5.63;100.00;102431.38;5010668;28;20038;-79
2021/10/07 04:20:04;;;;;;;7.38;5.68;;;;;;;5.62;100.00;102427.06;5018214;28;20502;-80
2021/10/07 04:22:29;;;;;;;9.20;5.50;;;;;;;5.63;100.00;102433.13;5008524;28;20072;-78
2021/10/07 04:24:56;;;;;;;9.52;5.15;;;;;;;5.61;100.00;102440.16;5006553;28;20032;-78
2021/10/07 04:27:22;;;;;;;7.88;5.22;;;;;;;5.52;100.00;102435.38;5007869;28;20039;-79
2021/10/07 04:29:47;;;;;;;8.77;5.65;;;;;;;5.52;100.00;102451.00;4998241;28;20037;-79
2021/10/07 04:32:13;;;;;;;7.43;5.20;;;;;;;5.47;100.00;102452.06;5038569;28;20048;-79
2021/10/07 04:34:38;;;;;;;7.60;5.47;;;;;;;5.44;100.00;102456.56;5015476;28;20079;-79
2021/10/07 04:37:04;;;;;;;7.78;4.90;;;;;;;5.36;100.00;102458.69;5019827;22;21013;-80
2021/10/07 04:39:29;;;;;;;5.18;4.20;;;;;;;5.36;100.00;102459.53;4984189;28;20062;-78
2021/10/07 04:41:55;;;;;;;6.53;4.20;;;;;;;5.34;100.00;102458.75;4971818;28;20041;-78
2021/10/07 04:44:21;;;;;;;5.05;4.60;;;;;;;5.37;100.00;102470.78;4969420;28;20524;-80
2021/10/07 04:46:46;;;;;;;5.80;4.50;;;;;;;5.33;100.00;102469.22;4953665;28;20040;-79
2021/10/07 04:49:12;;;;;;;7.68;5.13;;;;;;;5.31;100.00;102471.91;4978418;28;20026;-81
2021/10/07 04:51:37;;;;;;;6.40;4.82;;;;;;;5.24;100.00;102467.91;4983455;28;20081;-79
2021/10/07 04:54:03;;;;;;;10.50;5.55;;;;;;;5.29;100.00;102486.75;4986301;28;20058;-81
2021/10/07 04:56:29;;;;;;;5.93;4.63;;;;;;;5.25;100.00;102482.59;4967453;28;20072;-79
2021/10/07 04:58:54;;;;;;;4.57;4.05;;;;;;;5.22;100.00;102478.38;4984843;28;20033;-79
2021/10/07 05:01:21;;;;;;;5.47;4.35;;;;;;;5.22;100.00;102494.00;4952447;28;20119;-81
2021/10/07 05:03:47;;;;;;;6.30;5.25;;;;;;;5.16;100.00;102503.81;4986654;28;20041;-80
2021/10/07 05:06:13;;;;;;;5.13;4.50;;;;;;;5.16;100.00;102499.47;4986803;28;20540;-79
2021/10/07 05:08:38;;;;;;;6.63;5.03;;;;;;;5.18;100.00;102497.66;4986089;28;20100;-79
2021/10/07 05:11:05;;;;;;;6.38;4.53;;;;;;;5.13;100.00;102498.75;4981525;28;20038;-79
2021/10/07 05:13:31;;;;;;;7.20;5.00;;;;;;;5.18;100.00;102499.38;4966123;28;20161;-78
2021/10/07 05:15:56;;;;;;;8.10;6.15;;;;;;;5.15;100.00;102502.13;4954875;28;20478;-80
2021/10/07 05:18:22;;;;;;;9.35;6.40;;;;;;;5.21;100.00;102515.69;4955901;28;20112;-77
2021/10/07 05:20:50;;;;;;;13.90;8.77;;;;;;;5.29;100.00;102514.53;4988021;28;21348;-79
2021/10/07 05:23:16;;;;;;;15.65;9.20;;;;;;;5.33;100.00;102529.06;4957500;28;20033;-78
2021/10/07 05:25:41;;;;;;;17.95;10.48;;;;;;;5.33;100.00;102529.94;4975633;28;20034;-80
2021/10/07 05:28:07;;;;;;;16.88;9.95;;;;;;;5.37;100.00;102528.03;4993003;28;20511;-81
2021/10/07 05:30:32;;;;;;;15.75;10.15;;;;;;;5.45;100.00;102536.34;4977916;28;20040;-80
2021/10/07 05:32:58;;;;;;;15.85;9.63;;;;;;;5.42;100.00;102531.28;4979728;28;20030;-79
2021/10/07 05:35:23;;;;;;;15.35;10.30;;;;;;;5.47;100.00;102544.94;4995459;28;20404;-78
2021/10/07 05:37:48;;;;;;;12.30;9.68;;;;;;;5.44;100.00;102553.72;4979216;28;20038;-79
2021/10/07 05:40:14;;;;;;;13.48;9.63;;;;;;;5.42;100.00;102552.94;4964601;28;20149;-79
2021/10/07 05:42:39;;;;;;;12.57;9.15;;;;;;;5.38;100.00;102556.59;4994370;28;20058;-79
2021/10/07 05:45:10;;;;;;;11.35;9.23;;;;;;;5.35;100.00;102554.13;4996171;28;20038;-78
2021/10/07 05:47:35;;;;;;;14.85;9.27;;;;;;;5.37;100.00;102551.44;4979195;28;20038;-79
2021/10/07 05:50:01;;;;;;;15.32;9.25;;;;;;;5.50;100.00;102560.41;4999710;28;20095;-79
2021/10/07 05:52:26;;;;;;;59.17;10.85;;;;;;;5.52;100.00;102568.13;4995567;28;20038;-80
2021/10/07 05:54:52;;;;;;;11.93;8.45;;;;;;;5.51;100.00;102564.69;4979931;28;20097;-79
2021/10/07 05:57:17;;;;;;;10.60;8.23;;;;;;;5.60;100.00;102572.09;4979076;28;20099;-79
2021/10/07 05:59:43;;;;;;;23.23;9.95;;;;;;;5.59;100.00;102567.78;4978580;28;20057;-79
2021/10/07 06:02:08;;;;;;;12.38;8.45;;;;;;;5.59;100.00;102569.56;4995663;28;20519;-79
2021/10/07 06:04:34;;;;;;;13.05;8.57;;;;;;;5.50;100.00;102557.81;4962406;28;20571;-79
2021/10/07 06:06:59;;;;;;;15.20;10.63;;;;;;;5.47;100.00;102566.59;4963618;28;20459;-80
2021/10/07 06:09:25;;;;;;;13.15;9.07;;;;;;;5.60;100.00;102576.47;4974206;28;20030;-78
2021/10/07 06:11:50;;;;;;;16.48;10.20;;;;;;;5.62;100.00;102579.84;5004370;28;20030;-80
2021/10/07 06:14:17;;;;;;;17.42;10.48;;;;;;;5.74;100.00;102581.88;4990853;28;20853;-79
2021/10/07 06:16:42;;;;;;;20.23;11.38;;;;;;;5.82;100.00;102587.59;4976513;28;20543;-79
2021/10/07 06:19:15;;;;;;;16.45;10.75;;;;;;;5.88;100.00;102596.88;4975317;28;20088;-78
2021/10/07 06:21:41;;;;;;;17.02;11.23;;;;;;;5.84;100.00;102596.19;4982813;28;20038;-79
2021/10/07 06:24:06;;;;;;;15.30;10.15;;;;;;;5.85;100.00;102603.06;4978825;28;20068;-77
2021/10/07 06:26:32;;;;;;;15.85;10.23;;;;;;;5.89;100.00;102606.38;4975023;28;20050;-78
2021/10/07 06:28:57;;;;;;;14.60;8.77;;;;;;;5.97;100.00;102614.72;4993351;28;20031;-78
2021/10/07 06:31:22;;;;;;;14.82;9.75;;;;;;;6.04;100.00;102612.66;4994553;28;20073;-79
2021/10/07 06:33:48;;;;;;;15.40;10.75;;;;;;;6.10;100.00;102603.72;4969430;28;20049;-79
2021/10/07 06:36:14;;;;;;;13.15;8.82;;;;;;;6.27;100.00;102618.56;4965814;28;20032;-80
2021/10/07 06:38:39;;;;;;;13.63;8.20;;;;;;;6.35;100.00;102619.06;5011399;28;20077;-78
2021/10/07 06:41:05;;;;;;;7.38;6.10;;;;;;;6.36;100.00;102628.56;4979058;28;20091;-79
2021/10/07 06:43:30;;;;;;;12.77;8.43;;;;;;;6.36;100.00;102625.94;5011163;28;20030;-78
2021/10/07 06:45:55;;;;;;;15.20;9.80;;;;;;;6.43;100.00;102645.59;4979012;28;20628;-79
2021/10/07 06:48:21;;;;;;;10.98;6.93;;;;;;;6.39;100.00;102638.84;5010874;28;20033;-80
2021/10/07 06:50:47;;;;;;;14.75;9.75;;;;;;;6.45;100.00;102654.19;4995182;28;20030;-79
2021/10/07 06:53:12;;;;;;;14.18;9.30;;;;;;;6.49;100.00;102649.69;4994940;28;20496;-80
2021/10/07 06:55:39;;;;;;;14.52;10.38;;;;;;;6.52;100.00;102649.53;5011215;28;20069;-80
2021/10/07 06:58:08;;;;;;;14.90;9.93;;;;;;;6.56;100.00;102657.13;4978495;28;20116;-82
2021/10/07 07:00:34;;;;;;;14.10;9.38;;;;;;;6.60;100.00;102661.28;4961496;28;20508;-78
2021/10/07 07:03:00;;;;;;;12.98;10.27;;;;;;;6.67;100.00;102660.97;4962045;28;20038;-80
2021/10/07 07:05:26;;;;;;;13.75;10.05;;;;;;;6.71;100.00;102665.97;4962412;28;20038;-78
2021/10/07 07:07:53;;;;;;;11.50;9.05;;;;;;;6.75;100.00;102666.69;5011566;28;20029;-80
2021/10/07 07:10:18;;;;;;;13.75;9.30;;;;;;;6.78;100.00;102659.56;4978431;28;20037;-80
2021/10/07 07:12:45;;;;;;;14.07;9.20;;;;;;;6.85;100.00;102675.72;4978634;28;20845;-79
2021/10/07 07:15:11;;;;;;;9.77;8.65;;;;;;;6.96;100.00;102676.06;4996318;28;20034;-79
2021/10/07 07:17:37;;;;;;;11.52;7.93;;;;;;;6.99;100.00;102669.84;4972747;28;20692;-79
2021/10/07 07:20:03;;;;;;;9.95;7.53;;;;;;;7.08;100.00;102679.81;4994263;28;20034;-80
2021/10/07 07:22:29;;;;;;;8.13;7.18;;;;;;;7.19;100.00;102676.69;5011817;28;20511;-78
2021/10/07 07:24:55;;;;;;;8.60;7.30;;;;;;;7.32;100.00;102680.34;5012001;28;20033;-79
2021/10/07 07:27:21;;;;;;;8.88;6.70;;;;;;;7.46;100.00;102692.72;4978090;28;20030;-81
2021/10/07 07:29:46;;;;;;;8.57;6.45;;;;;;;7.59;100.00;102680.72;4972908;28;20034;-80
2021/10/07 07:32:12;;;;;;;6.38;5.70;;;;;;;7.74;100.00;102684.31;4985736;28;20497;-80
2021/10/07 07:34:37;;;;;;;6.60;4.43;;;;;;;7.94;100.00;102696.28;4978115;28;20048;-79
2021/10/07 07:37:03;;;;;;;5.50;3.85;;;;;;;8.16;100.00;102695.16;4993893;28;20385;-81
2021/10/07 07:39:28;;;;;;;7.88;4.45;;;;;;;8.27;100.00;102698.03;4980251;28;20030;-79
2021/10/07 07:41:55;;;;;;;5.93;4.53;;;;;;;8.43;100.00;102697.22;4977636;28;20445;-79
2021/10/07 07:44:20;;;;;;;7.35;4.05;;;;;;;8.51;100.00;102697.63;4994011;28;20112;-78
2021/10/07 07:46:46;;;;;;;9.05;3.83;;;;;;;8.57;100.00;102700.78;4994275;28;20042;-79
2021/10/07 07:49:11;;;;;;;3.47;3.17;;;;;;;8.60;100.00;102694.50;5012028;28;20033;-78
2021/10/07 07:51:37;;;;;;;6.85;3.28;;;;;;;8.66;100.00;102709.03;4976558;28;20045;-80
2021/10/07 07:54:02;;;;;;;3.55;3.22;;;;;;;8.80;100.00;102714.34;4977815;28;20069;-79
2021/10/07 07:56:28;;;;;;;6.20;3.75;;;;;;;8.73;100.00;102705.13;4993645;28;20435;-78
2021/10/07 07:58:54;;;;;;;5.22;3.67;;;;;;;8.65;100.00;102696.88;4976656;28;20040;-80
2021/10/07 08:01:20;;;;;;;3.65;3.28;;;;;;;8.85;100.00;102720.13;4993783;28;20096;-79
2021/10/07 08:03:46;;;;;;;7.90;3.35;;;;;;;8.95;100.00;102718.69;4993284;28;20038;-78
2021/10/07 08:06:11;;;;;;;6.05;3.83;;;;;;;9.10;100.00;102718.75;4977337;28;20045;-79
2021/10/07 08:08:37;;;;;;;4.32;3.80;;;;;;;9.09;100.00;102719.66;4977125;28;20037;-80
2021/10/07 08:11:02;;;;;;;5.78;3.90;;;;;;;9.15;100.00;102711.44;4993357;28;20037;-79
2021/10/07 08:13:28;;;;;;;5.80;4.28;;;;;;;9.31;100.00;102714.03;4993316;28;20072;-78
2021/10/07 08:15:53;;;;;;;11.38;5.10;;;;;;;9.51;100.00;102712.84;4993655;28;20074;-79
2021/10/07 08:18:19;;;;;;;6.32;4.35;;;;;;;9.72;100.00;102721.22;4991994;28;20030;-79
2021/10/07 08:20:45;;;;;;;7.97;3.92;;;;;;;9.76;100.00;102704.38;4991444;28;20050;-79
2021/10/07 08:23:12;;;;;;;7.28;3.70;;;;;;;9.70;100.00;102721.31;4976853;28;20088;-78
2021/10/07 08:25:39;;;;;;;9.88;4.53;;;;;;;9.70;100.00;102720.44;4993615;28;20099;-79
2021/10/07 08:28:06;;;;;;;7.32;4.03;;;;;;;9.94;100.00;102723.34;5010779;28;20053;-79
2021/10/07 08:30:31;;;;;;;6.30;4.00;;;;;;;10.08;100.00;102725.97;4992690;28;20036;-79
2021/10/07 08:32:57;;;;;;;6.78;4.03;;;;;;;10.28;100.00;102723.91;4993602;28;20030;-78
2021/10/07 08:35:23;;;;;;;8.00;4.07;;;;;;;10.38;100.00;102724.19;4993363;28;20046;-79
2021/10/07 08:37:48;;;;;;;6.18;3.42;;;;;;;10.36;100.00;102721.69;4983969;28;20044;-79
2021/10/07 08:40:15;;;;;;;5.75;4.03;;;;;;;10.46;100.00;102732.44;4993230;28;20108;-79
2021/10/07 08:42:41;;;;;;;5.25;3.25;;;;;;;10.33;100.00;102729.72;5009964;28;20109;-79
2021/10/07 08:45:09;;;;;;;5.20;3.45;;;;;;;10.39;100.00;102733.75;4977114;28;20030;-78
2021/10/07 08:47:37;;;;;;;5.57;3.55;;;;;;;10.52;100.00;102726.78;4961003;28;20053;-79
2021/10/07 08:50:03;;;;;;;4.78;3.60;;;;;;;10.72;100.00;102738.66;4997134;28;20032;-78
2021/10/07 08:52:29;;;;;;;5.90;3.20;;;;;;;10.87;100.00;102734.19;5008116;28;20448;-78
2021/10/07 08:54:54;;;;;;;6.43;2.95;;;;;;;11.06;100.00;102744.34;4997147;28;20120;-78
2021/10/07 08:57:20;;;;;;;5.38;2.85;;;;;;;11.22;100.00;102744.16;4974247;28;20042;-79
2021/10/07 08:59:45;;;;;;;6.28;2.95;;;;;;;11.22;100.00;102744.16;4979396;28;20038;-79
2021/10/07 09:02:27;;;;;;;5.65;3.03;;;;;;;11.19;100.00;102734.69;4964314;28;20053;-77
2021/10/07 09:04:54;;;;;;;6.10;2.92;;;;;;;11.34;100.00;102743.34;4997694;28;20041;-78
2021/10/07 09:07:21;;;;;;;4.68;2.65;;;;;;;11.48;100.00;102737.16;4964949;28;20048;-78
2021/10/07 09:09:46;;;;;;;4.85;2.75;;;;;;;11.55;100.00;102740.22;4980867;28;20092;-77
2021/10/07 09:12:19;;;;;;;7.70;2.55;;;;;;;11.55;100.00;102742.84;4996362;28;20041;-78
2021/10/07 09:14:46;;;;;;;3.50;2.65;;;;;;;11.49;100.00;102730.97;4996851;28;20135;-78
2021/10/07 09:17:15;;;;;;;5.80;3.53;;;;;;;11.39;100.00;102735.13;4981082;28;20451;-76
2021/10/07 09:19:45;;;;;;;6.07;3.28;;;;;;;11.53;100.00;102742.94;5014369;28;20042;-81
2021/10/07 09:22:18;;;;;;;6.82;2.65;;;;;;;11.79;99.03;102750.81;4979983;28;20566;-79
2021/10/07 09:24:46;;;;;;;3.83;2.42;;;;;;;11.89;98.58;102749.25;4977074;28;20077;-77
2021/10/07 09:27:36;;;;;;;7.50;3.42;;;;;;;12.01;97.46;102737.91;5000838;28;20037;-80
2021/10/07 09:30:10;;;;;;;8.38;2.95;;;;;;;12.12;96.79;102746.84;5002906;28;20030;-78
2021/10/07 09:32:45;;;;;;;4.03;2.40;;;;;;;12.19;96.16;102745.47;5008529;28;20033;-77
2021/10/07 09:35:14;;;;;;;5.78;2.83;;;;;;;12.25;96.45;102745.88;5014995;28;20042;-77
2021/10/07 09:37:40;;;;;;;5.25;2.85;;;;;;;12.38;95.32;102748.47;4997036;28;20037;-78
2021/10/07 09:40:21;;;;;;;3.15;2.13;;;;;;;12.49;95.04;102757.38;4996887;28;20052;-79
2021/10/07 09:42:50;;;;;;;4.03;2.42;;;;;;;12.62;94.14;102758.19;4985946;28;20065;-77
2021/10/07 09:45:21;;;;;;;6.28;2.75;;;;;;;12.68;93.67;102762.16;4984266;28;20076;-79
2021/10/07 09:47:56;;;;;;;4.35;2.67;;;;;;;12.73;92.70;102757.41;4995796;28;20123;-78
2021/10/07 09:50:41;;;;;;;5.80;2.90;;;;;;;12.69;93.66;102759.41;4995227;28;20072;-79
2021/10/07 09:53:10;;;;;;;6.22;2.35;;;;;;;12.94;93.07;102762.91;4979222;28;20053;-78
2021/10/07 09:55:41;;;;;;;9.30;2.92;;;;;;;13.02;91.34;102764.03;4978845;28;20038;-80
2021/10/07 09:58:10;;;;;;;5.45;2.92;;;;;;;13.15;95.52;102760.50;5012538;28;20447;-79
2021/10/07 10:00:40;;;;;;;5.72;2.60;;;;;;;13.31;91.36;102771.59;4995059;28;20041;-77
2021/10/07 10:03:07;;;;;;;6.28;2.95;;;;;;;13.37;90.87;102765.00;4978875;28;20034;-77
2021/10/07 10:05:36;;;;;;;6.60;2.60;;;;;;;13.55;89.79;102771.53;4978983;28;20046;-78
2021/10/07 10:08:07;;;;;;;5.88;2.58;;;;;;;13.69;91.29;102769.63;4995009;28;20036;-78
2021/10/07 10:10:34;;;;;;;4.50;2.50;;;;;;;13.79;90.10;102768.00;4995377;28;20037;-79
2021/10/07 10:13:00;;;;;;;4.82;2.78;;;;;;;13.76;88.88;102765.56;4979385;28;20044;-79
2021/10/07 10:15:26;;;;;;;8.75;2.78;;;;;;;13.82;89.57;102765.09;4979312;28;20034;-78
2021/10/07 10:17:52;;;;;;;4.53;2.90;;;;;;;13.91;88.66;102761.75;4979817;28;20040;-79
2021/10/07 10:20:25;;;;;;;5.90;2.83;;;;;;;14.10;89.46;102769.06;4979478;28;20846;-80
2021/10/07 10:22:56;;;;;;;2.65;2.13;;;;;;;14.23;87.57;102774.22;4995381;28;20034;-78
2021/10/07 10:25:23;;;;;;;4.20;2.00;;;;;;;14.41;84.29;102764.03;4979377;28;20072;-77
2021/10/07 10:27:53;;;;;;;3.35;2.25;;;;;;;14.47;86.80;102768.81;5010262;28;20080;-77
2021/10/07 10:30:50;;;;;;;6.13;2.80;;;;;;;14.36;84.79;102771.47;4996249;28;20085;-79
2021/10/07 10:33:28;;;;;;;5.57;2.58;;;;;;;14.37;84.46;102767.84;4978023;28;20042;-78
2021/10/07 10:35:54;;;;;;;4.65;2.47;;;;;;;14.47;84.32;102770.63;4996366;28;20041;-78
2021/10/07 10:38:20;;;;;;;4.38;1.85;;;;;;;14.55;82.39;102768.19;5006709;23;20112;-83
2021/10/07 10:40:45;;;;;;;4.32;2.22;;;;;;;14.64;81.38;102777.22;4953928;28;20030;-83
2021/10/07 10:43:17;;;;;;;5.20;2.03;;;;;;;14.67;82.57;102780.41;4945259;28;20552;-81
2021/10/07 10:45:51;;;;;;;2.15;1.77;;;;;;;14.68;80.57;102771.56;4945656;28;20042;-84
2021/10/07 10:48:42;;;;;;;4.53;2.58;;;;;;;14.77;81.50;102785.81;4945210;28;20412;-82
2021/10/07 10:51:12;;;;;;;3.55;1.92;;;;;;;14.84;80.89;102773.78;4961037;28;20045;-82
2021/10/07 10:54:03;;;;;;;4.88;2.15;;;;;;;14.84;80.42;102772.94;4961589;28;20042;-81
2021/10/07 10:56:42;;;;;;;3.67;2.10;;;;;;;14.92;80.41;102779.28;4969733;28;20055;-82
2021/10/07 10:59:22;;;;;;;4.35;1.95;;;;;;;15.04;80.71;102779.25;4967970;28;20062;-82
2021/10/07 11:02:24;;;;;;;4.70;2.20;;;;;;;15.02;78.37;102782.00;4980507;28;20037;-82
2021/10/07 11:04:51;;;;;;;4.00;1.60;;;;;;;15.12;77.65;102792.66;4964154;28;20034;-83
2021/10/07 11:07:22;;;;;;;3.88;1.83;;;;;;;15.16;78.05;102784.38;4970977;28;20033;-83
2021/10/07 11:09:55;;;;;;;3.88;1.90;;;;;;;15.26;76.08;102794.19;4959960;28;20027;-84
2021/10/07 11:12:21;;;;;;;3.70;1.60;;;;;;;15.37;76.45;102794.13;4974609;28;20520;-85
2021/10/07 11:14:49;;;;;;;3.50;2.00;;;;;;;15.44;76.03;102791.78;4949223;28;20030;-84
2021/10/07 11:17:18;;;;;;;3.20;1.90;;;;;;;15.55;76.64;102794.38;4953979;28;20030;-84
2021/10/07 11:19:44;;;;;;;3.50;1.70;;;;;;;15.64;75.57;102803.34;4951942;28;20045;-80
2021/10/07 11:22:10;;;;;;;2.55;1.50;;;;;;;15.71;74.14;102800.06;4962747;28;20109;-82
2021/10/07 11:24:47;;;;;;;3.75;1.63;;;;;;;15.67;75.36;102801.28;4943959;28;20030;-82